x

Santa Monica Basin - 33nm Wsw Of Santa Monica, Ca (46025) Wave Buoy

8:50 - Wed 2nd Sep 2015 All times are PDT. -7 hours from GMT.

  • Sig Wave height 3.6ft
  • Swell Direction
  • Peak Period 11s
  • Average Period 8s
  • Wind
    7mph, 9mph gusts
  • Sea Temp 70°f
  • Aire Temp 66°f
  • Sea Pressure 1015.2mb
  • Santa Monica Basin - 33nm Wsw Of Santa Monica, Ca
  • Santa Monica Basin - 33nm Wsw Of Santa Monica, Ca

More Historic Weather Station data

Upgrade to MSW Pro to gain access to the past 30 days of data for over 8000 Wavebouys and Weather Stations around the globe.

Join Pro

Comparision Forecast

View Surf forecast
   
mié 09/02 8:50 3.5ft 11s 8s 7 9 mph 1015.2mb 70f 66f
7:50 3.5ft 11s 8s 4 7 mph 1015mb 70f 66f
6:50 3ft 11s 8s 9 11 mph 1014.7mb 70f 66f
5:50 3ft 14s 8s 7 9 mph 1014.2mb 70f 67f
4:50 3ft 11s 8s 4
mph
1013.9mb 70f 67f
3:50 2.5ft 12s 7s 7 9 mph 1013.8mb 70f 67f
2:50 3ft 13s 8s 7 9 mph 1014mb 71f 67f
1:50 3ft 11s 8s 4 7 mph 1014mb 71f 67f
12:50 3ft 12s 7s 9
mph
1014.3mb 71f 67f
mar 09/01 11:50 3.5ft 12s 7s 7 9 mph 1014.1mb 71f 68f
10:50 3.5ft 12s 7s 4 7 mph 1013.9mb 71f 68f
9:50 3.5ft 13s 7s 7 9 mph 1013.8mb 71f 68f
8:50 4ft 13s 8s 9 11 mph 1013.6mb 71f 68f
7:50 3.5ft 13s 7s 11 13 mph 1012.8mb 71f 69f
6:50 3.5ft 13s 8s 7 9 mph 1012.3mb 71f 69f
5:50 3.5ft 13s 8s 7
mph
1012mb 71f 69f
4:50 4ft 14s 8s 9 11 mph 1012.1mb 71f 69f
3:50 3.5ft 14s 7s 7 9 mph 1012.4mb 71f 69f
2:50 3.5ft 14s 8s 9
mph
1012.7mb 72f 69f
1:50 3ft 14s 8s 7 9 mph 1012.9mb 71f 69f
12:50 3.5ft 14s 8s 7
mph
1013mb 72f 69f
11:50 3.5ft 15s 7s 2 4 mph 1013.5mb 71f 69f
10:50 3.5ft 15s 6s 4 7 mph 1014mb 71f 68f
9:50 3.5ft 15s 6s 4 7 mph 1013.8mb 71f 68f
8:50 3.5ft 15s 6s 7 9 mph 1013.4mb 70f 68f
7:50 3.5ft 12s 7s 7 9 mph 1013.2mb 71f 68f
6:50 4ft 15s 6s 7
mph
1013mb 71f 67f
5:50 3.5ft 15s 7s 9 11 mph 1012.4mb 71f 67f
4:50 3.5ft 11s 7s 11 13 mph 1012.2mb 71f 67f
3:50 3.5ft 15s 7s 11 13 mph 1012.2mb 72f 67f
2:50 3.5ft 15s 7s 13 16 mph 1012mb 72f 68f
1:50 3.5ft 16s 6s 4 7 mph 1012.2mb 72f 69f
12:50 3.5ft 13s 6s 4 7 mph 1012.6mb 73f 69f
lun 08/31 11:50 4.5ft 15s 6s 4
mph
1012.5mb 73f 69f
10:50 3.5ft 15s 6s 4
mph
1012.1mb 73f 69f
9:50 3.5ft 15s 6s 7 9 mph 1012mb 73f 69f
8:50 3.5ft 15s 6s 4
mph
1011.4mb 72f 69f
7:50 3ft 15s 6s 11 13 mph 1010.5mb 73f 70f
6:50 3ft 15s 6s 11 13 mph 1010.6mb 74f 69f
5:50 3ft 16s 6s 13 16 mph 1010.8mb 73f 70f
4:50 3.5ft 8s 6s 9 11 mph 1011.3mb 74f 70f
3:50 3.5ft 15s 7s 9
mph
1011.7mb 74f 70f
2:50 3.5ft 16s 7s 4 7 mph 1012.3mb 74f 70f
1:50 3.5ft 8s 7s 4
mph
1012.8mb 74f 70f
12:50 3ft 8s 6s 7
mph
1013.1mb 73f 69f
11:50 3.5ft 16s 6s 11 13 mph 1013.2mb 73f 69f
10:50 4ft 9s 6s 11
mph
1013mb 73f 69f
9:50 4ft 16s 6s 9 11 mph 1012.7mb 73f 70f
8:50 3.5ft 8s 6s 4 7 mph 1012.5mb 73f 70f
7:50 3.5ft 8s 6s 9 13 mph 1011.9mb 73f 70f
6:50 3.5ft 8s 6s 7 11 mph 1011.2mb 73f 71f
5:50 4.5ft 9s 7s 9 11 mph 1011.1mb 73f 70f
4:50 4ft 9s 7s 7 9 mph 1010.7mb 73f 70f
3:50 4ft 16s 7s 9 11 mph 1010.1mb 73f 70f
2:50 3.5ft 14s 7s 9 11 mph 1009.9mb 73f 71f
1:50 3.5ft 13s 6s 9
mph
1010mb 73f 71f
12:50 4ft 16s 6s 7 9 mph 1010.3mb 73f 71f
dom 08/30 11:50 4ft 14s 6s 2 4 mph 1010.1mb 73f 71f
10:50 4.5ft 13s 6s  -  2 mph 1009.9mb 73f 71f
9:50 4.5ft 6s 6s 4 7 mph 1009.8mb 73f 71f
8:50 4.5ft 6s 5s 7 9 mph 1009.7mb 74f 71f
7:50 4.5ft 6s 5s 7 9 mph 1009mb 74f 71f
6:50 4.5ft 6s 6s 11
mph
1009.4mb 74f 72f
5:50 4.5ft 6s 6s 9 11 mph 1009.9mb 74f 72f
4:50 4.5ft 6s 6s 2 4 mph 1010.4mb 74f 73f
3:50 4.5ft 6s 5s 9
mph
1010.9mb 74f 72f
2:50 4.5ft 14s 6s 9 11 mph 1011.6mb 74f 71f
1:50 4.5ft 7s 6s 11 13 mph 1012.3mb 74f 72f
12:50 4.5ft 7s 6s 4 7 mph 1012.7mb 74f 72f
11:50 4.5ft 7s 6s 7 9 mph 1013.1mb 74f 71f
10:50 4.5ft 7s 6s 9
mph
1013mb 73f 71f
9:50 4.5ft 6s 6s 7 9 mph 1012.8mb 73f 72f
8:50 4.5ft 6s 6s 7 9 mph 1012.7mb 73f 71f
7:50 4.5ft 6s 5s 16 20 mph 1012.1mb 73f 72f
6:50 5ft 6s 6s 4 7 mph 1012mb 73f 71f
5:50 4.5ft 6s 5s 7 11 mph 1011.3mb 73f 72f
4:50 4.5ft 6s 5s 7 9 mph 1011.3mb 73f 72f
3:50 4.5ft 6s 5s 9 11 mph 1010.9mb 73f 72f
2:50 5ft 6s 6s 11 13 mph 1010.9mb 73f 72f
1:50 4.5ft 6s 5s 9 11 mph 1010.9mb 73f 72f
12:50 4.5ft 6s 6s 9 11 mph 1010.8mb 73f 73f
sáb 08/29 11:50 4.5ft 14s 6s 13
mph
1010.5mb 73f 72f
10:50 5ft 5s 5s 13 18 mph 1010.4mb 73f 72f
9:50 5ft 5s 5s 13 16 mph 1010.4mb 73f 72f
8:50 5.5ft 6s 6s 11 13 mph 1010.2mb 73f 73f
7:50 5ft 6s 6s 13 16 mph 1009.8mb 74f 72f
6:50 4.5ft 6s 5s 9 11 mph 1009.8mb 73f 74f
5:50 3.5ft 14s 6s 13 16 mph 1010.1mb 74f 73f